createdAt,value
2018-04-28T00:02:17.815Z,100319.19
2018-04-28T00:04:48.001Z,100327.84
2018-04-28T00:07:20.900Z,100331.67
2018-04-28T00:09:55.782Z,100330.12
2018-04-28T00:12:28.996Z,100340.95
2018-04-28T00:15:07.514Z,100347.73
2018-04-28T00:17:39.244Z,100348.50
2018-04-28T00:20:12.297Z,100349.16
2018-04-28T00:22:43.135Z,100352.09
2018-04-28T00:25:17.682Z,100353.85
2018-04-28T00:27:48.124Z,100351.25
2018-04-28T00:30:24.888Z,100361.20
2018-04-28T00:32:58.347Z,100352.30
2018-04-28T00:35:31.905Z,100357.02
2018-04-28T00:38:02.943Z,100357.12
2018-04-28T00:40:34.559Z,100359.03
2018-04-28T00:43:05.954Z,100360.02
2018-04-28T00:45:36.538Z,100361.87
2018-04-28T00:48:13.112Z,100364.45
2018-04-28T00:50:43.437Z,100363.84
2018-04-28T00:53:14.738Z,100362.47
2018-04-28T00:55:45.480Z,100365.02
2018-04-28T00:58:16.179Z,100361.45
2018-04-28T01:00:46.754Z,100367.72
2018-04-28T01:03:17.144Z,100363.36
2018-04-28T01:05:47.865Z,100374.39
2018-04-28T01:08:18.057Z,100365.17
2018-04-28T01:10:48.492Z,100368.73
2018-04-28T01:13:19.035Z,100368.12
2018-04-28T01:15:49.307Z,100378.48
2018-04-28T01:18:19.450Z,100386.36
2018-04-28T01:20:50.090Z,100388.69
2018-04-28T01:23:20.470Z,100385.34
2018-04-28T01:25:51.509Z,100381.99
2018-04-28T01:28:22.082Z,100384.69
2018-04-28T01:30:52.654Z,100387.16
2018-04-28T01:33:23.247Z,100385.05
2018-04-28T01:35:56.203Z,100385.94
2018-04-28T01:38:26.332Z,100383.81
2018-04-28T01:40:56.789Z,100387.16
2018-04-28T01:43:27.158Z,100391.42
2018-04-28T01:46:04.186Z,100392.86
2018-04-28T01:48:34.643Z,100398.16
2018-04-28T01:51:05.093Z,100403.95
2018-04-28T01:53:35.739Z,100394.95
2018-04-28T01:56:05.972Z,100405.86
2018-04-28T01:58:36.465Z,100406.93
2018-04-28T02:01:07.030Z,100408.03
2018-04-28T02:03:38.555Z,100409.83
2018-04-28T02:06:19.709Z,100410.18
2018-04-28T02:08:53.383Z,100412.61
2018-04-28T02:11:23.697Z,100419.20
2018-04-28T02:13:54.120Z,100418.53
2018-04-28T02:16:24.448Z,100420.37
2018-04-28T02:18:57.604Z,100431.58
2018-04-28T02:21:28.512Z,100427.88
2018-04-28T02:24:04.215Z,100426.33
2018-04-28T02:26:37.919Z,100426.88
2018-04-28T02:29:08.789Z,100426.91
2018-04-28T02:31:40.311Z,100425.10
2018-04-28T02:34:11.105Z,100428.31
2018-04-28T02:36:41.530Z,100425.55
2018-04-28T02:39:12.185Z,100424.83
2018-04-28T02:41:42.758Z,100423.73
2018-04-28T02:44:12.960Z,100438.68
2018-04-28T02:46:43.304Z,100428.02
2018-04-28T02:49:14.460Z,100436.51
2018-04-28T02:51:44.740Z,100438.31
2018-04-28T02:54:15.197Z,100437.05
2018-04-28T02:56:46.948Z,100439.11
2018-04-28T02:59:17.519Z,100441.38
2018-04-28T03:01:47.889Z,100441.70
2018-04-28T03:04:18.212Z,100432.34
2018-04-28T03:06:50.198Z,100438.64
2018-04-28T03:09:29.209Z,100444.92
2018-04-28T03:11:59.047Z,100437.59
2018-04-28T03:14:29.751Z,100438.64
2018-04-28T03:16:59.926Z,100439.77
2018-04-28T03:19:29.753Z,100444.92
2018-04-28T03:22:00.181Z,100440.27
2018-04-28T03:24:30.874Z,100433.01
2018-04-28T03:27:01.086Z,100443.50
2018-04-28T03:29:31.569Z,100446.63
2018-04-28T03:32:01.492Z,100441.19
2018-04-28T03:34:32.270Z,100445.10
2018-04-28T03:37:08.345Z,100443.51
2018-04-28T03:39:38.254Z,100442.17
2018-04-28T03:42:09.693Z,100445.06
2018-04-28T03:44:39.960Z,100442.75
2018-04-28T03:47:09.923Z,100440.86
2018-04-28T03:49:39.933Z,100443.13
2018-04-28T03:52:10.679Z,100439.78
2018-04-28T03:54:42.033Z,100442.42
2018-04-28T03:57:12.933Z,100443.77
2018-04-28T04:04:06.068Z,100449.12
2018-04-28T04:06:36.731Z,100449.94
2018-04-28T04:09:08.707Z,100451.36
2018-04-28T04:11:39.965Z,100451.06
2018-04-28T04:14:09.987Z,100458.27
2018-04-28T04:16:40.106Z,100463.93
2018-04-28T04:19:11.607Z,100469.62
2018-04-28T04:21:42.144Z,100471.17
2018-04-28T04:24:12.732Z,100467.98
2018-04-28T04:26:46.828Z,100479.31
2018-04-28T04:29:19.370Z,100477.17
2018-04-28T04:31:49.478Z,100476.21
2018-04-28T04:34:19.532Z,100483.09
2018-04-28T04:36:51.893Z,100484.60
2018-04-28T04:39:24.617Z,100487.80
2018-04-28T04:42:00.543Z,100486.95
2018-04-28T04:44:30.850Z,100494.59
2018-04-28T04:47:01.101Z,100490.53
2018-04-28T04:49:30.965Z,100489.16
2018-04-28T04:52:06.257Z,100494.61
2018-04-28T04:54:37.667Z,100491.19
2018-04-28T04:57:08.636Z,100495.66
2018-04-28T04:59:39.172Z,100500.70
2018-04-28T05:02:09.350Z,100504.91
2018-04-28T05:04:39.381Z,100504.98
2018-04-28T05:07:09.690Z,100511.31
2018-04-28T05:09:40.521Z,100506.62
2018-04-28T05:12:18.664Z,100502.13
2018-04-28T05:14:49.281Z,100511.91
2018-04-28T05:17:19.088Z,100516.36
2018-04-28T05:19:53.549Z,100518.17
2018-04-28T05:22:24.548Z,100518.92
2018-04-28T05:24:54.702Z,100520.94
2018-04-28T05:27:24.740Z,100526.39
2018-04-28T05:29:56.041Z,100526.66
2018-04-28T05:32:32.580Z,100531.63
2018-04-28T05:35:03.818Z,100533.75
2018-04-28T05:37:34.026Z,100533.80
2018-04-28T05:40:06.886Z,100536.41
2018-04-28T05:42:37.006Z,100535.23
2018-04-28T05:45:08.608Z,100541.23
2018-04-28T05:47:38.526Z,100544.72
2018-04-28T05:50:09.596Z,100546.73
2018-04-28T05:52:47.329Z,100553.54
2018-04-28T05:55:19.947Z,100546.31
2018-04-28T05:57:50.272Z,100551.88
2018-04-28T06:00:23.306Z,100561.16
2018-04-28T06:02:55.026Z,100565.91
2018-04-28T06:05:24.944Z,100562.80
2018-04-28T06:07:55.667Z,100567.36
2018-04-28T06:10:25.429Z,100571.35
2018-04-28T06:13:06.617Z,100574.92
2018-04-28T06:15:37.468Z,100580.16
2018-04-28T06:18:08.801Z,100578.33
2018-04-28T06:20:38.918Z,100591.84
2018-04-28T06:23:10.193Z,100585.44
2018-04-28T06:25:40.467Z,100586.63
2018-04-28T06:28:10.558Z,100587.14
2018-04-28T06:30:40.585Z,100579.08
2018-04-28T06:33:10.791Z,100581.12
2018-04-28T06:35:40.573Z,100588.59
2018-04-28T06:38:10.271Z,100592.98
2018-04-28T06:40:48.557Z,100587.86
2018-04-28T06:43:18.476Z,100590.59
2018-04-28T06:45:48.809Z,100593.89
2018-04-28T06:48:18.616Z,100591.62
2018-04-28T06:50:48.401Z,100607.14
2018-04-28T06:53:18.554Z,100586.73
2018-04-28T06:55:49.035Z,100610.66
2018-04-28T06:58:23.560Z,100608.83
2018-04-28T07:00:56.173Z,100613.93
2018-04-28T07:03:26.108Z,100606.78
2018-04-28T07:05:56.194Z,100606.42
2018-04-28T07:08:26.245Z,100610.92
2018-04-28T07:10:56.095Z,100611.41
2018-04-28T07:13:25.986Z,100610.02
2018-04-28T07:15:58.669Z,100594.47
2018-04-28T07:18:29.031Z,100611.69
2018-04-28T07:21:03.107Z,100613.60
2018-04-28T07:23:34.924Z,100620.34
2018-04-28T07:26:06.341Z,100620.91
2018-04-28T07:28:36.515Z,100619.23
2018-04-28T07:31:06.975Z,100622.48
2018-04-28T07:33:36.924Z,100627.34
2018-04-28T07:36:07.183Z,100624.54
2018-04-28T07:38:37.265Z,100626.73
2018-04-28T07:41:07.335Z,100628.16
2018-04-28T07:43:37.375Z,100633.98
2018-04-28T07:46:07.879Z,100627.61
2018-04-28T07:48:39.322Z,100621.64
2018-04-28T07:51:09.636Z,100627.40
2018-04-28T07:53:40.045Z,100629.17
2018-04-28T07:56:09.968Z,100624.88
2018-04-28T07:58:40.127Z,100626.05
2018-04-28T08:01:13.764Z,100622.91
2018-04-28T08:03:44.634Z,100622.36
2018-04-28T08:06:14.536Z,100631.13
2018-04-28T08:08:44.747Z,100628.85
2018-04-28T08:11:14.763Z,100628.84
2018-04-28T08:13:44.688Z,100626.19
2018-04-28T08:16:16.360Z,100626.94
2018-04-28T08:18:48.326Z,100636.77
2018-04-28T08:21:23.651Z,100633.04
2018-04-28T08:23:56.362Z,100634.13
2018-04-28T08:26:27.588Z,100635.20
2018-04-28T08:28:57.811Z,100631.97
2018-04-28T08:31:29.647Z,100642.20
2018-04-28T08:34:00.706Z,100639.07
2018-04-28T08:36:30.913Z,100643.47
2018-04-28T08:39:01.541Z,100638.70
2018-04-28T08:41:33.354Z,100640.53
2018-04-28T08:44:04.130Z,100631.61
2018-04-28T08:46:34.260Z,100639.15
2018-04-28T08:49:04.268Z,100641.91
2018-04-28T08:51:34.463Z,100639.60
2018-04-28T08:54:06.414Z,100647.39
2018-04-28T08:56:37.360Z,100652.03
2018-04-28T08:59:19.749Z,100637.37
2018-04-28T09:01:55.085Z,100638.90
2018-04-28T09:04:31.674Z,100645.86
2018-04-28T09:07:07.326Z,100646.55
2018-04-28T09:09:37.182Z,100651.59
2018-04-28T09:12:12.426Z,100643.27
2018-04-28T09:14:42.762Z,100632.70
2018-04-28T09:17:13.375Z,100650.21
2018-04-28T09:19:43.451Z,100657.20
2018-04-28T09:22:14.380Z,100649.83
2018-04-28T09:24:44.607Z,100648.36
2018-04-28T09:27:14.914Z,100656.95
2018-04-28T09:29:52.678Z,100649.33
2018-04-28T09:32:22.931Z,100658.83
2018-04-28T09:34:54.356Z,100654.75
2018-04-28T09:37:25.241Z,100656.53
2018-04-28T09:39:55.934Z,100665.15
2018-04-28T09:45:13.743Z,100658.80
2018-04-28T09:47:45.283Z,100669.34
2018-04-28T09:50:16.364Z,100669.34
2018-04-28T09:52:48.092Z,100667.37
2018-04-28T09:55:18.486Z,100663.66
2018-04-28T09:57:57.325Z,100666.11
2018-04-28T10:00:33.293Z,100674.13
2018-04-28T10:03:05.955Z,100673.59
2018-04-28T10:05:39.553Z,100676.71
2018-04-28T10:08:12.890Z,100668.69
2018-04-28T10:11:03.382Z,100677.31
2018-04-28T10:13:35.802Z,100676.52
2018-04-28T10:16:06.104Z,100676.58
2018-04-28T10:18:36.339Z,100678.73
2018-04-28T10:21:06.637Z,100679.94
2018-04-28T10:23:37.127Z,100678.90
2018-04-28T10:26:08.610Z,100668.24
2018-04-28T10:28:39.784Z,100679.67
2018-04-28T10:31:09.912Z,100681.91
2018-04-28T10:33:43.280Z,100679.27
2018-04-28T10:36:27.740Z,100678.33
2018-04-28T10:39:24.511Z,100654.49
2018-04-28T10:41:55.673Z,100669.57
2018-04-28T10:44:27.985Z,100671.07
2018-04-28T10:46:58.110Z,100669.19
2018-04-28T10:49:28.817Z,100668.09
2018-04-28T10:51:59.454Z,100672.73
2018-04-28T10:54:30.464Z,100677.01
2018-04-28T10:57:01.256Z,100670.41
2018-04-28T10:59:33.735Z,100676.27
2018-04-28T11:02:04.058Z,100672.92
2018-04-28T11:04:35.432Z,100675.34
2018-04-28T11:07:06.385Z,100674.11
2018-04-28T11:09:44.682Z,100666.76
2018-04-28T11:12:15.309Z,100673.33
2018-04-28T11:14:45.817Z,100683.77
2018-04-28T11:17:18.973Z,100667.76
2018-04-28T11:19:51.168Z,100673.77
2018-04-28T11:22:22.264Z,100660.58
2018-04-28T11:25:01.956Z,100673.25
2018-04-28T11:27:33.284Z,100673.58
2018-04-28T11:30:06.484Z,100671.91
2018-04-28T11:32:37.184Z,100653.44
2018-04-28T11:35:08.308Z,100670.97
2018-04-28T11:37:38.442Z,100668.78
2018-04-28T11:40:08.988Z,100675.91
2018-04-28T11:42:40.556Z,100673.84
2018-04-28T11:45:12.294Z,100671.16
2018-04-28T11:47:43.165Z,100669.51
2018-04-28T11:50:13.407Z,100662.52
2018-04-28T11:52:44.307Z,100659.58
2018-04-28T11:55:15.017Z,100648.16
2018-04-28T11:57:45.213Z,100647.77
2018-04-28T12:00:18.117Z,100653.08
2018-04-28T12:02:48.342Z,100650.14
2018-04-28T12:05:18.551Z,100648.97
2018-04-28T12:07:49.204Z,100646.84
2018-04-28T12:10:19.757Z,100649.36
2018-04-28T12:12:52.928Z,100654.63
2018-04-28T12:15:23.522Z,100645.72
2018-04-28T12:17:53.813Z,100643.67
2018-04-28T12:20:23.976Z,100661.38
2018-04-28T12:22:54.302Z,100636.08
2018-04-28T12:25:24.741Z,100633.56
2018-04-28T12:27:56.386Z,100646.60
2018-04-28T12:30:27.537Z,100657.30
2018-04-28T12:32:57.642Z,100658.60
2018-04-28T12:35:29.153Z,100651.70
2018-04-28T12:38:00.472Z,100650.94
2018-04-28T12:40:32.222Z,100647.34
2018-04-28T12:43:04.397Z,100653.83
2018-04-28T12:45:34.695Z,100651.81
2018-04-28T12:48:10.388Z,100651.36
2018-04-28T12:50:49.308Z,100650.32
2018-04-28T12:53:19.425Z,100626.43
2018-04-28T12:55:50.044Z,100635.21
2018-04-28T12:58:20.440Z,100651.98
2018-04-28T13:00:50.997Z,100650.95
2018-04-28T13:03:21.981Z,100657.84
2018-04-28T13:05:58.534Z,100658.80
2018-04-28T13:11:25.802Z,100659.34
2018-04-28T13:13:56.248Z,100671.73
2018-04-28T13:16:30.319Z,100672.65
2018-04-28T13:19:00.851Z,100666.59
2018-04-28T13:21:31.159Z,100671.34
2018-04-28T13:24:02.553Z,100665.48
2018-04-28T13:26:32.681Z,100667.86
2018-04-28T13:29:05.374Z,100666.76
2018-04-28T13:31:35.862Z,100658.70
2018-04-28T13:34:06.108Z,100655.31
2018-04-28T13:36:37.925Z,100653.63
2018-04-28T13:39:08.191Z,100648.78
2018-04-28T13:41:39.214Z,100631.77
2018-04-28T13:44:10.110Z,100640.98
2018-04-28T13:46:43.165Z,100640.11
2018-04-28T13:49:16.339Z,100635.82
2018-04-28T13:51:48.636Z,100637.81
2018-04-28T13:54:20.794Z,100633.34
2018-04-28T13:56:53.165Z,100620.35
2018-04-28T13:59:25.617Z,100632.20
2018-04-28T14:01:56.608Z,100631.80
2018-04-28T14:04:27.955Z,100634.30
2018-04-28T14:07:05.991Z,100622.82
2018-04-28T14:09:44.807Z,100620.94
2018-04-28T14:12:17.088Z,100617.49
2018-04-28T14:14:47.611Z,100610.50
2018-04-28T14:17:19.590Z,100602.48
2018-04-28T14:19:50.384Z,100605.16
2018-04-28T14:22:20.964Z,100600.58
2018-04-28T14:24:52.095Z,100597.47
2018-04-28T14:27:26.601Z,100599.98
2018-04-28T14:29:57.436Z,100599.73
2018-04-28T14:32:28.396Z,100593.27
2018-04-28T14:34:59.568Z,100609.92
2018-04-28T14:37:29.766Z,100603.22
2018-04-28T14:40:08.392Z,100607.52
2018-04-28T14:42:41.166Z,100604.75
2018-04-28T14:45:15.729Z,100609.81
2018-04-28T14:47:46.418Z,100603.50
2018-04-28T14:50:17.203Z,100610.27
2018-04-28T14:52:48.959Z,100610.19
2018-04-28T14:55:19.282Z,100616.58
2018-04-28T14:57:49.999Z,100612.23
2018-04-28T15:00:22.261Z,100612.66
2018-04-28T15:02:54.422Z,100609.86
2018-04-28T15:05:25.270Z,100604.37
2018-04-28T15:07:56.151Z,100609.27
2018-04-28T15:10:27.332Z,100606.16
2018-04-28T15:12:58.501Z,100600.34
2018-04-28T15:15:33.963Z,100607.31
2018-04-28T15:18:05.453Z,100601.75
2018-04-28T15:20:35.908Z,100603.33
2018-04-28T15:23:08.982Z,100606.31
2018-04-28T15:25:40.263Z,100602.27
2018-04-28T15:28:10.849Z,100617.53
2018-04-28T15:30:43.333Z,100606.95
2018-04-28T15:33:14.105Z,100609.87
2018-04-28T15:35:46.558Z,100618.86
2018-04-28T15:38:17.044Z,100616.67
2018-04-28T15:40:54.830Z,100612.39
2018-04-28T15:43:27.075Z,100621.76
2018-04-28T15:45:59.042Z,100615.10
2018-04-28T15:48:31.087Z,100611.84
2018-04-28T15:51:04.967Z,100605.59
2018-04-28T15:53:41.696Z,100612.16
2018-04-28T15:56:15.311Z,100615.95
2018-04-28T15:58:56.387Z,100607.89
2018-04-28T16:01:32.168Z,100609.80
2018-04-28T16:04:05.455Z,100613.87
2018-04-28T16:06:37.357Z,100614.36
2018-04-28T16:09:10.927Z,100612.94
2018-04-28T16:11:46.661Z,100618.54
2018-04-28T16:14:21.075Z,100621.12
2018-04-28T16:16:52.053Z,100624.55
2018-04-28T16:19:23.248Z,100622.89
2018-04-28T16:21:55.019Z,100627.69
2018-04-28T16:24:25.672Z,100632.28
2018-04-28T16:27:05.084Z,100621.44
2018-04-28T16:29:37.482Z,100610.09
2018-04-28T16:32:07.688Z,100621.55
2018-04-28T16:34:39.972Z,100621.22
2018-04-28T16:37:15.648Z,100616.83
2018-04-28T16:39:46.845Z,100614.22
2018-04-28T16:42:18.509Z,100611.28
2018-04-28T16:44:50.319Z,100612.45
2018-04-28T16:47:20.613Z,100611.33
2018-04-28T16:49:59.143Z,100606.54
2018-04-28T16:52:31.682Z,100605.09
2018-04-28T16:55:03.176Z,100598.21
2018-04-28T16:57:33.407Z,100586.14
2018-04-28T17:00:06.303Z,100596.66
2018-04-28T17:02:36.701Z,100584.88
2018-04-28T17:05:13.317Z,100591.55
2018-04-28T17:07:44.323Z,100585.73
2018-04-28T17:10:16.048Z,100575.58
2018-04-28T17:12:52.241Z,100583.11
2018-04-28T17:15:28.707Z,100592.81
2018-04-28T17:18:15.153Z,100589.27
2018-04-28T17:20:48.090Z,100587.19
2018-04-28T17:23:22.570Z,100568.33
2018-04-28T17:25:56.951Z,100576.23
2018-04-28T17:28:28.921Z,100577.89
2018-04-28T17:31:22.343Z,100586.11
2018-04-28T17:33:54.616Z,100588.30
2018-04-28T17:36:41.959Z,100586.73
2018-04-28T17:39:13.756Z,100580.22
2018-04-28T17:41:44.847Z,100582.45
2018-04-28T17:44:22.230Z,100586.94
2018-04-28T17:47:03.907Z,100587.09
2018-04-28T17:49:34.627Z,100588.21
2018-04-28T17:52:04.925Z,100578.38
2018-04-28T17:54:37.142Z,100589.83
2018-04-28T17:57:10.138Z,100591.94
2018-04-28T17:59:50.400Z,100582.27
2018-04-28T18:02:38.769Z,100587.52
2018-04-28T18:05:16.915Z,100588.52
2018-04-28T18:07:48.017Z,100590.90
2018-04-28T18:10:26.534Z,100597.61
2018-04-28T18:12:57.441Z,100603.84
2018-04-28T18:15:29.719Z,100609.83
2018-04-28T18:18:03.393Z,100615.57
2018-04-28T18:20:36.210Z,100613.82
2018-04-28T18:23:09.101Z,100617.94
2018-04-28T18:25:45.774Z,100622.17
2018-04-28T18:28:19.101Z,100623.34
2018-04-28T18:30:52.768Z,100623.59
2018-04-28T18:33:24.740Z,100633.70
2018-04-28T18:35:55.968Z,100624.34
2018-04-28T18:38:28.542Z,100631.62
2018-04-28T18:40:58.913Z,100635.39
2018-04-28T18:43:29.962Z,100634.41
2018-04-28T18:46:03.061Z,100637.02
2018-04-28T18:48:35.253Z,100641.88
2018-04-28T18:51:09.336Z,100640.63
2018-04-28T18:53:40.805Z,100646.27
2018-04-28T18:56:17.457Z,100659.50
2018-04-28T18:58:56.785Z,100654.52
2018-04-28T19:01:27.647Z,100656.02
2018-04-28T19:03:59.160Z,100646.10
2018-04-28T19:06:29.857Z,100651.56
2018-04-28T19:11:38.118Z,100653.27
2018-04-28T19:14:32.895Z,100657.84
2018-04-28T19:17:07.848Z,100659.47
2018-04-28T19:19:46.910Z,100650.90
2018-04-28T19:22:18.776Z,100658.55
2018-04-28T19:24:50.156Z,100653.20
2018-04-28T19:27:22.133Z,100654.55
2018-04-28T19:29:53.504Z,100651.09
2018-04-28T19:32:26.123Z,100656.97
2018-04-28T19:34:59.558Z,100662.39
2018-04-28T19:37:36.166Z,100667.94
2018-04-28T19:40:08.818Z,100667.28
2018-04-28T19:42:40.789Z,100667.02
2018-04-28T19:45:16.862Z,100663.28
2018-04-28T19:47:50.929Z,100669.62
2018-04-28T19:50:22.362Z,100668.13
2018-04-28T19:52:53.343Z,100670.32
2018-04-28T19:55:25.829Z,100668.58
2018-04-28T19:57:58.739Z,100670.44
2018-04-28T20:00:31.302Z,100672.05
2018-04-28T20:03:05.566Z,100663.36
2018-04-28T20:05:36.514Z,100663.87
2018-04-28T20:08:09.651Z,100667.19
2018-04-28T20:10:41.770Z,100667.02
2018-04-28T20:13:13.545Z,100666.28
2018-04-28T20:15:44.867Z,100675.00
2018-04-28T20:18:15.442Z,100673.61
2018-04-28T20:20:45.824Z,100678.46
2018-04-28T20:23:27.276Z,100672.33
2018-04-28T20:25:58.249Z,100677.14
2018-04-28T20:28:30.654Z,100682.77
2018-04-28T20:31:02.183Z,100674.48
2018-04-28T20:33:35.585Z,100683.24
2018-04-28T20:36:08.369Z,100679.45
2018-04-28T20:38:40.505Z,100684.34
2018-04-28T20:41:14.164Z,100688.53
2018-04-28T20:43:45.912Z,100677.55
2018-04-28T20:46:23.582Z,100681.00
2018-04-28T20:48:54.845Z,100681.59
2018-04-28T20:51:26.076Z,100677.75
2018-04-28T20:54:03.414Z,100678.38
2018-04-28T20:56:35.162Z,100680.60
2018-04-28T20:59:09.004Z,100677.09
2018-04-28T21:01:41.744Z,100670.09
2018-04-28T21:04:20.574Z,100683.56
2018-04-28T21:06:52.341Z,100677.59
2018-04-28T21:09:23.674Z,100685.92
2018-04-28T21:11:54.152Z,100688.02
2018-04-28T21:14:27.034Z,100675.30
2018-04-28T21:16:59.341Z,100694.20
2018-04-28T21:19:31.600Z,100697.73
2018-04-28T21:22:03.897Z,100694.66
2018-04-28T21:24:36.178Z,100693.42
2018-04-28T21:27:09.703Z,100692.66
2018-04-28T21:29:40.031Z,100683.08
2018-04-28T21:32:10.745Z,100691.16
2018-04-28T21:34:41.252Z,100690.14
2018-04-28T21:37:14.188Z,100686.89
2018-04-28T21:39:45.786Z,100688.32
2018-04-28T21:42:19.151Z,100686.64
2018-04-28T21:44:50.411Z,100689.30
2018-04-28T21:47:22.498Z,100695.20
2018-04-28T21:49:57.792Z,100690.59
2018-04-28T21:52:30.517Z,100692.59
2018-04-28T21:55:04.429Z,100683.78
2018-04-28T21:57:45.780Z,100692.47
2018-04-28T22:00:25.385Z,100691.23
2018-04-28T22:03:00.662Z,100689.98
2018-04-28T22:05:35.316Z,100684.55
2018-04-28T22:08:07.316Z,100682.91
2018-04-28T22:10:42.921Z,100682.39
2018-04-28T22:13:16.449Z,100680.06
2018-04-28T22:15:49.821Z,100687.87
2018-04-28T22:18:20.760Z,100684.66
2018-04-28T22:20:52.686Z,100685.08
2018-04-28T22:23:33.992Z,100686.58
2018-04-28T22:26:09.605Z,100689.57
2018-04-28T22:28:44.457Z,100672.23
2018-04-28T22:31:15.921Z,100688.97
2018-04-28T22:33:46.677Z,100685.30
2018-04-28T22:36:17.309Z,100687.13
2018-04-28T22:38:48.645Z,100688.67
2018-04-28T22:41:20.224Z,100684.41
2018-04-28T22:43:52.503Z,100683.30
2018-04-28T22:49:01.909Z,100684.92
2018-04-28T22:51:33.293Z,100679.32
2018-04-28T22:54:03.702Z,100683.44
2018-04-28T22:56:35.155Z,100679.78
2018-04-28T22:59:17.480Z,100692.98
2018-04-28T23:01:49.233Z,100688.40
2018-04-28T23:04:20.363Z,100682.30
2018-04-28T23:06:52.064Z,100683.23
2018-04-28T23:09:22.951Z,100682.05
2018-04-28T23:11:53.235Z,100682.16
2018-04-28T23:14:23.642Z,100679.13
2018-04-28T23:16:55.486Z,100680.36
2018-04-28T23:19:26.576Z,100682.20
2018-04-28T23:21:59.458Z,100680.06
2018-04-28T23:24:32.737Z,100671.50
2018-04-28T23:27:03.569Z,100678.03
2018-04-28T23:29:33.806Z,100680.95
2018-04-28T23:32:05.434Z,100695.25
2018-04-28T23:34:36.854Z,100685.95
2018-04-28T23:37:07.390Z,100689.95
2018-04-28T23:39:39.357Z,100693.37
2018-04-28T23:42:09.678Z,100696.22
2018-04-28T23:44:41.242Z,100687.02
2018-04-28T23:47:12.293Z,100690.16
2018-04-28T23:49:42.401Z,100693.08
2018-04-28T23:52:12.872Z,100683.26
2018-04-28T23:54:43.048Z,100681.53
2018-04-28T23:57:13.410Z,100678.95
2018-04-28T23:59:43.803Z,100675.33
